Time;durP1;ratioP1;P1;durP2;ratioP2;P2;SDS_P1;SDS_P2;PMS_P1;PMS_P2;Temp;Humidity;BMP_temperature;BMP_pressure;BME280_temperature;BME280_humidity;BME280_pressure;Samples;Min_cycle;Max_cycle;Signal;HPM_P1;HPM_P2
2023/11/24 00:02:42;;;;;;;1.97;1.87;;;;;;;12.22;61.11;98602.97;6703127;29;20253;-81
2023/11/24 00:06:03;;;;;;;2.73;1.70;;;;;;;12.32;61.32;98607.88;6682262;29;20300;-82
2023/11/24 00:09:27;;;;;;;2.13;1.97;;;;;;;12.42;60.99;98587.41;6681756;29;20355;-81
2023/11/24 00:12:49;;;;;;;1.70;1.60;;;;;;;11.51;62.44;98547.53;6682574;29;20217;-80
2023/11/24 00:16:11;;;;;;;2.00;1.70;;;;;;;12.30;60.91;98572.97;6682790;29;20209;-83
2023/11/24 00:19:34;;;;;;;2.00;1.87;;;;;;;11.94;61.97;98577.41;6707167;29;20255;-83
2023/11/24 00:22:55;;;;;;;1.70;1.67;;;;;;;12.39;60.84;98571.63;6691224;29;20250;-83
2023/11/24 00:26:20;;;;;;;1.40;1.40;;;;;;;12.51;60.17;98563.63;6695621;29;20817;-83
2023/11/24 00:29:42;;;;;;;1.70;1.60;;;;;;;12.29;60.66;98530.78;6696575;29;20228;-83
2023/11/24 00:33:03;;;;;;;1.53;1.53;;;;;;;12.10;60.89;98536.34;6681675;29;20309;-82
2023/11/24 00:36:26;;;;;;;1.77;1.67;;;;;;;12.15;60.90;98513.00;6696870;29;20353;-81
2023/11/24 00:39:49;;;;;;;1.87;1.77;;;;;;;12.51;59.76;98539.28;6694798;29;20221;-82
2023/11/24 00:43:11;;;;;;;2.50;1.63;;;;;;;12.80;58.75;98530.44;6672974;29;20210;-80
2023/11/24 00:46:33;;;;;;;2.20;1.93;;;;;;;12.70;59.35;98509.28;6700030;29;20305;-81
2023/11/24 00:49:54;;;;;;;1.63;1.60;;;;;;;12.50;59.55;98499.75;6700841;29;20377;-81
2023/11/24 00:53:17;;;;;;;2.27;1.53;;;;;;;12.73;59.31;98481.81;6688442;29;20210;-81
2023/11/24 00:56:39;;;;;;;2.10;1.90;;;;;;;12.65;59.26;98479.41;6690968;29;20365;-81
2023/11/24 01:00:03;;;;;;;2.00;1.90;;;;;;;12.05;60.21;98477.53;6706853;29;20242;-80
2023/11/24 01:03:24;;;;;;;2.10;2.00;;;;;;;12.29;59.65;98465.91;6683049;29;20206;-81
2023/11/24 01:06:46;;;;;;;1.77;1.67;;;;;;;11.77;60.96;98470.94;6701223;29;20247;-81
2023/11/24 01:10:09;;;;;;;1.90;1.80;;;;;;;12.13;60.27;98466.47;6706907;29;20399;-82
2023/11/24 01:13:32;;;;;;;1.97;1.87;;;;;;;12.18;59.76;98473.91;6695202;29;20883;-80
2023/11/24 01:16:54;;;;;;;1.80;1.70;;;;;;;12.19;60.04;98467.44;6694636;29;20281;-81
2023/11/24 01:20:16;;;;;;;2.03;1.90;;;;;;;12.33;59.65;98463.56;6687018;29;20257;-81
2023/11/24 01:23:38;;;;;;;1.90;1.70;;;;;;;12.39;59.34;98455.38;6688291;29;20697;-81
2023/11/24 01:27:02;;;;;;;2.07;1.97;;;;;;;12.04;59.98;98469.69;6706282;29;20272;-81
2023/11/24 01:30:23;;;;;;;2.00;1.87;;;;;;;12.03;60.47;98474.25;6705730;29;20236;-81
2023/11/24 01:33:45;;;;;;;3.20;1.80;;;;;;;12.19;59.82;98475.53;6702535;29;20291;-81
2023/11/24 01:37:07;;;;;;;2.07;1.97;;;;;;;12.50;58.89;98486.22;6684897;29;20210;-81
2023/11/24 01:40:28;;;;;;;2.10;2.00;;;;;;;12.36;59.50;98482.88;6694519;29;20700;-81
2023/11/24 01:44:01;;;;;;;1.80;1.70;;;;;;;12.56;58.84;98488.06;6711743;29;20345;-81
2023/11/24 01:47:23;;;;;;;1.70;1.70;;;;;;;12.90;57.93;98476.59;6711660;29;20306;-82
2023/11/24 01:50:45;;;;;;;1.90;1.80;;;;;;;12.40;58.69;98437.28;6691776;29;20237;-81
2023/11/24 01:54:07;;;;;;;2.50;2.00;;;;;;;12.63;59.33;98464.47;6685876;29;20277;-81
2023/11/24 01:57:28;;;;;;;1.93;1.83;;;;;;;12.59;60.05;98461.41;6687215;29;20285;-81
2023/11/24 02:00:51;;;;;;;1.83;1.73;;;;;;;12.52;60.47;98468.72;6687870;29;20457;-81
2023/11/24 02:04:13;;;;;;;2.00;1.80;;;;;;;12.46;61.91;98458.00;6687275;29;20282;-81
2023/11/24 02:07:34;;;;;;;2.43;2.23;;;;;;;12.05;63.61;98453.22;6705656;29;20216;-81
2023/11/24 02:10:56;;;;;;;2.10;2.00;;;;;;;11.57;64.17;98410.88;6690095;29;20301;-81
2023/11/24 02:14:17;;;;;;;5.20;2.03;;;;;;;11.79;64.07;98429.19;6687192;29;20237;-80
2023/11/24 02:17:40;;;;;;;2.30;2.20;;;;;;;12.20;63.69;98445.59;6712975;29;20745;-81
2023/11/24 02:21:02;;;;;;;2.10;2.00;;;;;;;12.11;64.49;98451.53;6711373;29;20233;-81
2023/11/24 02:24:25;;;;;;;2.30;2.10;;;;;;;11.88;64.58;98402.72;6712113;29;20209;-81
2023/11/24 02:27:46;;;;;;;2.23;2.00;;;;;;;11.96;64.82;98448.34;6708841;29;20695;-83
2023/11/24 02:31:08;;;;;;;2.10;2.00;;;;;;;11.84;65.69;98444.72;6700909;29;20321;-83
2023/11/24 02:34:31;;;;;;;2.03;1.90;;;;;;;12.23;65.01;98433.50;6693460;29;20260;-83
2023/11/24 02:37:52;;;;;;;2.20;2.10;;;;;;;11.95;65.22;98450.22;6711159;29;20217;-83
2023/11/24 02:41:16;;;;;;;2.23;2.13;;;;;;;11.89;66.40;98443.00;6711648;29;20296;-82
2023/11/24 02:44:38;;;;;;;2.53;2.10;;;;;;;11.84;65.84;98437.44;6710249;29;20205;-83
2023/11/24 02:47:59;;;;;;;2.00;1.90;;;;;;;12.19;65.09;98433.16;6693019;29;20352;-83
2023/11/24 02:51:20;;;;;;;2.03;1.93;;;;;;;11.99;66.07;98429.00;6694429;29;20286;-82
2023/11/24 02:54:42;;;;;;;2.00;1.90;;;;;;;12.25;64.83;98429.53;6710668;29;20369;-81
2023/11/24 02:58:05;;;;;;;2.00;1.90;;;;;;;12.41;64.40;98425.41;6711835;29;20360;-81
2023/11/24 03:01:26;;;;;;;2.57;2.07;;;;;;;12.49;64.42;98411.56;6700637;29;20324;-81
2023/11/24 03:04:48;;;;;;;2.10;1.90;;;;;;;12.17;64.92;98385.78;6692200;29;20251;-81
2023/11/24 03:08:09;;;;;;;1.83;1.73;;;;;;;12.44;64.57;98370.88;6698483;29;20218;-83
2023/11/24 03:11:31;;;;;;;2.30;2.10;;;;;;;11.96;65.16;98378.09;6683388;29;20938;-83
2023/11/24 03:14:54;;;;;;;2.20;2.00;;;;;;;11.95;65.47;98369.19;6684292;29;20305;-83
2023/11/24 03:18:16;;;;;;;1.93;1.83;;;;;;;11.61;65.88;98309.50;6685802;29;20213;-83
2023/11/24 03:21:38;;;;;;;1.80;1.70;;;;;;;12.40;64.65;98381.31;6695342;29;20383;-82
2023/11/24 03:24:59;;;;;;;1.90;1.80;;;;;;;12.04;64.66;98361.59;6703774;29;20702;-82
2023/11/24 03:28:21;;;;;;;1.77;1.67;;;;;;;12.28;63.99;98342.59;6702668;29;20273;-82
2023/11/24 03:31:44;;;;;;;2.03;1.93;;;;;;;12.16;64.45;98357.91;6708180;29;20729;-83
2023/11/24 03:35:06;;;;;;;1.50;1.50;;;;;;;12.03;64.87;98341.03;6709019;29;20288;-83
2023/11/24 03:38:27;;;;;;;1.40;1.40;;;;;;;12.06;64.69;98336.00;6708939;29;20224;-83
2023/11/24 03:41:49;;;;;;;1.43;1.43;;;;;;;11.85;64.53;98287.84;6703440;29;20719;-83
2023/11/24 03:45:11;;;;;;;1.70;1.60;;;;;;;12.29;63.72;98314.53;6701360;29;20241;-83
2023/11/24 03:48:34;;;;;;;1.90;1.80;;;;;;;12.46;62.57;98322.81;6682745;29;20698;-83
2023/11/24 03:51:55;;;;;;;1.50;1.50;;;;;;;12.31;62.27;98325.94;6694532;29;20385;-82
2023/11/24 03:55:17;;;;;;;1.30;1.30;;;;;;;12.28;63.34;98329.06;6684402;29;20265;-83
2023/11/24 03:58:38;;;;;;;1.63;1.60;;;;;;;12.21;63.24;98327.53;6683748;29;20229;-82
2023/11/24 04:02:00;;;;;;;1.43;1.43;;;;;;;12.26;63.27;98331.19;6697365;29;20256;-83
2023/11/24 04:05:23;;;;;;;1.77;1.67;;;;;;;12.39;63.13;98331.00;6690804;29;20198;-83
2023/11/24 04:08:44;;;;;;;1.50;1.50;;;;;;;12.09;63.50;98324.75;6682435;29;20307;-83
2023/11/24 04:12:06;;;;;;;1.50;1.50;;;;;;;12.00;63.42;98315.31;6683946;29;20380;-83
2023/11/24 04:15:27;;;;;;;1.40;1.40;;;;;;;11.83;63.83;98314.25;6683745;29;20374;-83
2023/11/24 04:18:49;;;;;;;1.50;1.50;;;;;;;11.77;64.08;98301.66;6687307;29;20245;-83
2023/11/24 04:22:12;;;;;;;1.63;1.63;;;;;;;12.04;63.51;98307.56;6704275;29;20285;-82
2023/11/24 04:25:33;;;;;;;1.40;1.40;;;;;;;12.60;62.15;98284.56;6687791;29;20237;-83
2023/11/24 04:28:57;;;;;;;1.47;1.47;;;;;;;11.96;63.83;98291.66;6694772;29;20366;-83
2023/11/24 04:32:20;;;;;;;1.47;1.40;;;;;;;11.70;63.45;98236.06;6703774;29;20316;-83
2023/11/24 04:35:42;;;;;;;1.50;1.50;;;;;;;12.21;63.48;98282.38;6695144;29;20266;-83
2023/11/24 04:39:05;;;;;;;1.43;1.43;;;;;;;11.90;64.69;98282.59;6711226;29;20237;-83
2023/11/24 04:42:28;;;;;;;1.77;1.67;;;;;;;12.01;63.53;98279.13;6732377;29;20254;-84
2023/11/24 04:45:50;;;;;;;1.80;1.70;;;;;;;12.09;63.50;98259.09;6723693;29;20212;-83
2023/11/24 04:49:11;;;;;;;1.40;1.37;;;;;;;12.02;64.06;98271.81;6709838;29;20244;-81
2023/11/24 04:52:33;;;;;;;1.57;1.47;;;;;;;12.22;63.40;98270.50;6701050;29;20252;-83
2023/11/24 04:55:56;;;;;;;2.83;2.10;;;;;;;12.14;64.25;98286.22;6699932;29;20233;-82
2023/11/24 04:59:17;;;;;;;4.73;1.67;;;;;;;12.22;64.96;98354.31;6683825;29;20297;-84
2023/11/24 05:02:39;;;;;;;2.00;1.90;;;;;;;12.08;64.85;98368.19;6683528;29;20225;-83
2023/11/24 05:06:01;;;;;;;4.17;2.50;;;;;;;12.63;63.15;98367.09;6684168;29;20299;-84
2023/11/24 05:09:22;;;;;;;6.03;2.83;;;;;;;12.45;62.86;98356.31;6696518;29;20351;-83
2023/11/24 05:12:45;;;;;;;3.33;2.57;;;;;;;12.37;62.05;98354.75;6682882;29;20286;-83
2023/11/24 05:16:07;;;;;;;6.50;2.67;;;;;;;11.97;62.10;98352.72;6683131;29;20369;-84
2023/11/24 05:19:29;;;;;;;6.17;2.80;;;;;;;12.09;62.00;98346.34;6710879;29;20751;-84
2023/11/24 05:22:50;;;;;;;6.33;2.90;;;;;;;12.49;61.13;98352.09;6696367;29;20217;-83
2023/11/24 05:26:12;;;;;;;3.80;2.60;;;;;;;12.71;60.63;98350.53;6691183;29;20220;-84
2023/11/24 05:29:35;;;;;;;3.80;2.40;;;;;;;12.69;61.23;98355.38;6702614;29;20216;-84
2023/11/24 05:32:57;;;;;;;4.07;2.87;;;;;;;12.42;62.04;98337.84;6708710;29;20299;-83
2023/11/24 05:36:19;;;;;;;4.83;2.43;;;;;;;12.31;62.29;98352.13;6707783;29;20316;-84
2023/11/24 05:39:41;;;;;;;4.47;2.47;;;;;;;12.23;61.79;98342.44;6710392;29;20367;-84
2023/11/24 05:43:02;;;;;;;6.23;2.60;;;;;;;12.23;61.71;98338.91;6710631;29;20268;-83
2023/11/24 05:46:25;;;;;;;6.10;2.90;;;;;;;11.60;61.85;98343.78;6708845;29;20327;-86
2023/11/24 05:49:48;;;;;;;4.73;2.60;;;;;;;11.59;62.70;98344.84;6698729;29;20280;-87
2023/11/24 05:53:09;;;;;;;7.80;3.00;;;;;;;12.22;60.77;98342.69;6692355;29;20260;-86
2023/11/24 05:56:31;;;;;;;5.77;3.00;;;;;;;11.89;61.16;98323.31;6683294;29;20261;-86
2023/11/24 05:59:52;;;;;;;9.57;3.00;;;;;;;12.01;60.90;98341.25;6694704;29;20311;-86
2023/11/24 06:03:15;;;;;;;5.03;3.10;;;;;;;11.84;61.04;98342.06;6697085;29;20694;-85
2023/11/24 06:06:37;;;;;;;5.60;3.17;;;;;;;11.69;61.20;98320.81;6701953;29;20968;-84
2023/11/24 06:09:58;;;;;;;12.10;4.10;;;;;;;11.69;61.06;98318.13;6784259;23;21100;-86
2023/11/24 06:13:20;;;;;;;10.70;3.80;;;;;;;11.75;61.16;98311.81;6759748;29;20233;-86
2023/11/24 06:16:41;;;;;;;8.63;3.50;;;;;;;11.32;61.75;98305.59;6769613;29;20749;-85
2023/11/24 06:20:05;;;;;;;7.93;3.53;;;;;;;11.61;61.69;98304.94;6752962;29;20241;-86
2023/11/24 06:23:27;;;;;;;8.80;4.07;;;;;;;11.78;61.21;98294.34;6755231;29;20215;-84
2023/11/24 06:26:54;;;;;;;9.87;3.00;;;;;;;11.12;62.19;98269.88;6757622;29;20360;-86
2023/11/24 06:38:48;;;;;;;5.80;2.73;;;;;;;10.52;62.37;98213.13;6728256;29;20215;-90
2023/11/24 06:42:13;;;;;;;9.53;2.80;;;;;;;10.85;61.90;98230.69;6655734;29;20235;-88
2023/11/24 06:45:38;;;;;;;4.90;2.87;;;;;;;10.60;61.90;98218.25;6651452;29;20240;-91
2023/11/24 06:49:05;;;;;;;5.10;2.90;;;;;;;10.55;61.41;98151.53;6738068;29;20204;-88
2023/11/24 06:52:28;;;;;;;7.20;3.20;;;;;;;10.33;62.44;98187.19;6753066;29;20375;-88
2023/11/24 06:59:33;;;;;;;8.70;3.20;;;;;;;10.48;61.19;98118.44;6756579;29;20219;-84
2023/11/24 07:02:55;;;;;;;6.10;3.60;;;;;;;10.35;61.92;98102.38;6758072;29;20290;-83
2023/11/24 07:06:17;;;;;;;11.27;3.60;;;;;;;10.88;61.29;98173.63;6757584;29;20691;-84
2023/11/24 07:09:39;;;;;;;10.80;4.90;;;;;;;10.63;61.06;98118.09;6751356;29;20242;-85
2023/11/24 07:13:01;;;;;;;10.20;3.80;;;;;;;10.44;61.78;98127.16;6757564;29;20694;-84
2023/11/24 07:16:23;;;;;;;9.40;3.77;;;;;;;11.18;62.32;98250.13;6756215;29;20243;-85
2023/11/24 07:19:44;;;;;;;10.03;3.63;;;;;;;11.15;62.74;98255.94;6759058;29;20322;-85
2023/11/24 07:23:06;;;;;;;4.63;2.77;;;;;;;11.18;62.92;98249.28;6758362;29;20687;-86
2023/11/24 07:26:29;;;;;;;7.03;2.90;;;;;;;11.35;62.02;98242.25;6755970;29;20222;-82
2023/11/24 07:29:52;;;;;;;7.63;3.73;;;;;;;11.77;61.35;98244.09;6756606;29;20238;-83
2023/11/24 07:33:19;;;;;;;8.83;3.20;;;;;;;11.99;60.10;98234.47;6755878;29;20605;-84
2023/11/24 07:36:44;;;;;;;8.17;3.73;;;;;;;12.10;60.41;98258.03;6756400;29;20293;-85
2023/11/24 07:40:13;;;;;;;7.63;3.73;;;;;;;11.70;61.45;98219.03;6755183;29;20344;-83
2023/11/24 07:43:35;;;;;;;8.70;3.70;;;;;;;11.92;61.38;98247.25;6730996;29;20220;-84
2023/11/24 07:46:58;;;;;;;7.60;3.80;;;;;;;11.64;61.48;98250.47;6731350;29;20236;-84
2023/11/24 07:50:19;;;;;;;9.73;3.50;;;;;;;11.68;61.51;98221.97;6731772;29;20713;-85
2023/11/24 07:53:42;;;;;;;7.40;3.50;;;;;;;11.62;60.56;98228.28;6753651;29;20235;-84
2023/11/24 07:57:04;;;;;;;7.63;3.43;;;;;;;12.25;60.04;98212.47;6755259;29;20829;-85
2023/11/24 08:00:26;;;;;;;5.13;3.10;;;;;;;11.97;59.28;98207.69;6750052;29;20302;-84
2023/11/24 08:07:25;;;;;;;9.60;3.10;;;;;;;11.83;59.14;98214.31;6735755;29;20204;-86
2023/11/24 08:10:47;;;;;;;7.17;3.10;;;;;;;11.98;58.31;98216.63;6740113;29;21401;-85
2023/11/24 08:14:09;;;;;;;5.87;2.50;;;;;;;11.74;58.92;98204.88;6753483;29;20663;-85
2023/11/24 08:17:31;;;;;;;10.73;2.93;;;;;;;11.93;58.95;98192.16;6755213;29;20318;-85
2023/11/24 08:20:53;;;;;;;7.97;3.03;;;;;;;11.66;58.98;98139.53;6744940;29;20261;-85
2023/11/24 08:24:18;;;;;;;7.57;2.97;;;;;;;11.27;58.97;98059.88;6741527;29;20243;-85
2023/11/24 08:27:44;;;;;;;5.63;3.30;;;;;;;11.84;60.07;98188.94;6741127;29;20219;-85
2023/11/24 08:31:29;;;;;;;7.53;3.10;;;;;;;11.64;59.93;98104.66;6752274;29;20741;-86
2023/11/24 08:35:30;;;;;;;;;;;;;;;;;;;;;
2023/11/24 08:47:48;;;;;;;7.27;3.10;;;;;;;11.78;59.80;98132.31;6718622;29;20214;-85
2023/11/24 08:51:46;;;;;;;6.20;4.27;;;;;;;11.99;60.59;98164.22;6731552;29;20232;-85
2023/11/24 08:55:12;;;;;;;8.73;3.83;;;;;;;11.68;59.78;98059.97;6753576;29;20200;-85
2023/11/24 09:03:12;;;;;;;4.50;3.17;;;;;;;12.24;60.15;98163.03;6613883;29;20223;-85
2023/11/24 09:18:45;;;;;;;7.40;3.57;;;;;;;12.35;60.37;98146.03;6622099;29;20222;-84
2023/11/24 09:22:07;;;;;;;9.33;4.10;;;;;;;11.72;60.83;98061.16;6654934;29;20226;-85
2023/11/24 09:25:33;;;;;;;10.03;4.27;;;;;;;12.44;60.34;98073.47;6631784;29;20219;-85
2023/11/24 09:29:23;;;;;;;8.53;3.67;;;;;;;12.25;59.78;98004.38;6644814;29;20214;-86
2023/11/24 09:41:47;;;;;;;12.33;3.63;;;;;;;13.63;57.27;98128.66;6609212;29;20230;-91
2023/11/24 09:45:14;;;;;;;7.03;3.30;;;;;;;12.67;58.73;98074.31;6652709;29;20697;-86
2023/11/24 09:48:36;;;;;;;12.87;4.07;;;;;;;13.09;58.08;98096.66;6680980;29;20526;-86
2023/11/24 09:51:59;;;;;;;8.90;3.30;;;;;;;13.08;58.40;98087.72;6704533;29;20286;-88
2023/11/24 09:55:21;;;;;;;6.43;3.40;;;;;;;12.50;58.78;98092.31;6698805;29;20240;-85
2023/11/24 09:58:46;;;;;;;9.47;3.73;;;;;;;12.47;58.73;98089.25;6709480;29;20340;-87
2023/11/24 10:02:13;;;;;;;13.77;3.50;;;;;;;12.19;58.65;98052.09;6710648;29;20226;-87
2023/11/24 10:05:34;;;;;;;6.27;2.97;;;;;;;12.10;59.06;98077.00;6703956;29;20213;-87
2023/11/24 10:08:57;;;;;;;8.83;3.10;;;;;;;12.66;58.66;98055.63;6705723;29;20224;-87
2023/11/24 10:12:40;;;;;;;8.10;3.70;;;;;;;12.24;58.04;97970.31;6708924;29;20229;-87
2023/11/24 10:16:07;;;;;;;10.63;3.67;;;;;;;11.98;58.12;97992.41;6631196;29;20607;-88
2023/11/24 10:19:29;;;;;;;8.73;3.13;;;;;;;11.50;58.90;97991.66;6619802;29;20210;-87
2023/11/24 10:22:51;;;;;;;7.63;4.07;;;;;;;11.18;57.85;97893.16;6632978;29;20219;-87
2023/11/24 10:26:26;;;;;;;7.90;3.60;;;;;;;11.06;57.16;97889.59;6624308;29;20222;-89
2023/11/24 10:29:49;;;;;;;9.03;3.57;;;;;;;11.71;56.95;97983.91;6628717;29;20231;-87
2023/11/24 10:33:17;;;;;;;15.77;3.70;;;;;;;11.01;56.81;97902.94;6634250;29;20223;-88
2023/11/24 10:36:40;;;;;;;15.80;3.47;;;;;;;11.84;56.69;97977.44;6635164;29;20227;-87
2023/11/24 10:44:21;;;;;;;8.03;3.07;;;;;;;10.56;57.90;97883.66;6633659;29;20290;-87
2023/11/24 10:52:38;;;;;;;5.80;2.90;;;;;;;11.51;57.26;98006.81;6647386;29;20296;-88
2023/11/24 10:59:53;;;;;;;25.73;13.50;;;;;;;12.61;56.90;97967.09;6710229;29;20601;-88
2023/11/24 11:03:38;;;;;;;9.57;4.70;;;;;;;12.69;56.59;97968.63;6732304;29;20189;-91
2023/11/24 11:10:33;;;;;;;8.13;3.87;;;;;;;12.31;55.67;97904.28;6850445;23;20259;-86
2023/11/24 11:14:05;;;;;;;9.00;3.27;;;;;;;12.67;54.88;97938.25;6725895;29;20235;-86
2023/11/24 11:17:26;;;;;;;9.93;3.80;;;;;;;12.86;55.06;97950.59;6715102;29;20326;-86
2023/11/24 11:20:51;;;;;;;8.00;4.13;;;;;;;11.68;55.16;97822.34;6712034;29;20232;-87
2023/11/24 11:24:23;;;;;;;10.00;3.33;;;;;;;12.61;55.28;97934.66;6711603;29;20583;-84
2023/11/24 11:27:46;;;;;;;6.00;3.07;;;;;;;12.45;54.59;97929.97;6720219;29;20219;-84
2023/11/24 11:31:32;;;;;;;8.93;3.43;;;;;;;12.39;54.58;97925.50;6732238;29;20610;-84
2023/11/24 11:34:53;;;;;;;10.93;3.20;;;;;;;12.34;53.78;97854.31;6728373;29;20201;-84
2023/11/24 11:38:18;;;;;;;9.00;3.30;;;;;;;12.79;54.50;97904.72;6729642;29;20290;-87
2023/11/24 11:41:44;;;;;;;7.17;3.17;;;;;;;12.70;53.83;97892.63;6742213;23;20240;-87
2023/11/24 11:45:09;;;;;;;11.17;3.73;;;;;;;12.55;53.98;97908.56;6719426;29;20208;-86
2023/11/24 11:48:35;;;;;;;6.43;3.20;;;;;;;12.27;54.86;97894.19;6730140;29;20219;-88
2023/11/24 11:52:04;;;;;;;7.33;3.27;;;;;;;12.23;53.94;97879.50;6721237;29;20233;-86
2023/11/24 11:55:28;;;;;;;7.23;3.00;;;;;;;12.17;54.25;97869.63;6696325;29;20994;-86
2023/11/24 11:58:50;;;;;;;10.13;3.90;;;;;;;11.90;54.55;97845.00;6711252;29;20260;-85
2023/11/24 12:06:10;;;;;;;6.43;2.63;;;;;;;11.81;55.19;97883.41;6637718;29;20206;-85
2023/11/24 12:10:07;;;;;;;6.07;3.13;;;;;;;10.57;56.67;97731.69;6675145;29;20292;-84
2023/11/24 12:44:11;;;;;;;10.03;3.03;;;;;;;10.10;55.48;97719.13;6857680;23;20246;-88
2023/11/24 16:27:42;;;;;;;2.93;2.53;;;;;;;8.35;60.26;97898.19;6689643;29;20215;-90
2023/11/24 16:31:13;;;;;;;3.77;2.80;;;;;;;8.29;60.51;97893.66;7365015;23;20225;-90
2023/11/24 17:38:44;;;;;;;;;;;;;;;;;;;;;
